sensor_id;sensor_type;location;lat;lon;timestamp;pressure;altitude;pressure_sealevel;temperature;humidity
42771;BME280;28426;42.872;25.314;2023-05-20T00:02:23;97350.53;;;10.24;82.69
42771;BME280;28426;42.872;25.314;2023-05-20T00:04:54;97355.41;;;10.20;82.73
42771;BME280;28426;42.872;25.314;2023-05-20T00:07:26;97355.06;;;10.15;82.63
42771;BME280;28426;42.872;25.314;2023-05-20T00:09:59;97350.13;;;10.12;82.88
42771;BME280;28426;42.872;25.314;2023-05-20T00:12:30;97350.47;;;10.08;82.79
42771;BME280;28426;42.872;25.314;2023-05-20T00:15:01;97351.00;;;10.04;82.98
42771;BME280;28426;42.872;25.314;2023-05-20T00:17:33;97348.00;;;9.99;82.92
42771;BME280;28426;42.872;25.314;2023-05-20T00:20:04;97336.03;;;9.94;82.67
42771;BME280;28426;42.872;25.314;2023-05-20T00:22:36;97340.09;;;9.90;82.91
42771;BME280;28426;42.872;25.314;2023-05-20T00:25:09;97345.75;;;9.87;83.16
42771;BME280;28426;42.872;25.314;2023-05-20T00:27:41;97345.91;;;9.86;83.41
42771;BME280;28426;42.872;25.314;2023-05-20T00:30:13;97338.25;;;9.82;83.58
42771;BME280;28426;42.872;25.314;2023-05-20T00:32:44;97333.94;;;9.81;83.62
42771;BME280;28426;42.872;25.314;2023-05-20T00:35:15;97343.97;;;9.79;83.86
42771;BME280;28426;42.872;25.314;2023-05-20T00:37:46;97334.97;;;9.80;83.72
42771;BME280;28426;42.872;25.314;2023-05-20T00:40:20;97334.97;;;9.80;83.93
42771;BME280;28426;42.872;25.314;2023-05-20T00:42:51;97320.97;;;9.78;83.96
42771;BME280;28426;42.872;25.314;2023-05-20T00:45:22;97330.81;;;9.78;83.69
42771;BME280;28426;42.872;25.314;2023-05-20T00:47:53;97334.47;;;9.77;83.97
42771;BME280;28426;42.872;25.314;2023-05-20T00:50:28;97336.31;;;9.76;84.18
42771;BME280;28426;42.872;25.314;2023-05-20T00:52:59;97331.31;;;9.73;83.75
42771;BME280;28426;42.872;25.314;2023-05-20T00:55:32;97343.16;;;9.71;83.99
42771;BME280;28426;42.872;25.314;2023-05-20T00:58:04;97342.50;;;9.68;83.91
42771;BME280;28426;42.872;25.314;2023-05-20T01:00:36;97337.19;;;9.68;83.96
42771;BME280;28426;42.872;25.314;2023-05-20T01:03:07;97324.66;;;9.69;84.09
42771;BME280;28426;42.872;25.314;2023-05-20T01:05:38;97325.69;;;9.68;84.17
42771;BME280;28426;42.872;25.314;2023-05-20T01:08:09;97324.03;;;9.67;84.06
42771;BME280;28426;42.872;25.314;2023-05-20T01:10:46;97325.69;;;9.68;83.88
42771;BME280;28426;42.872;25.314;2023-05-20T01:13:20;97318.22;;;9.63;83.85
42771;BME280;28426;42.872;25.314;2023-05-20T01:15:52;97319.88;;;9.64;84.02
42771;BME280;28426;42.872;25.314;2023-05-20T01:18:27;97318.22;;;9.63;84.07
42771;BME280;28426;42.872;25.314;2023-05-20T01:21:01;97322.72;;;9.63;84.01
42771;BME280;28426;42.872;25.314;2023-05-20T01:23:37;97304.78;;;9.57;83.95
42771;BME280;28426;42.872;25.314;2023-05-20T01:26:08;97303.38;;;9.61;83.98
42771;BME280;28426;42.872;25.314;2023-05-20T01:28:41;97301.09;;;9.58;83.87
42771;BME280;28426;42.872;25.314;2023-05-20T01:31:17;97301.25;;;9.56;84.09
42771;BME280;28426;42.872;25.314;2023-05-20T01:33:53;97298.78;;;9.54;83.88
42771;BME280;28426;42.872;25.314;2023-05-20T01:36:25;97301.59;;;9.53;84.08
42771;BME280;28426;42.872;25.314;2023-05-20T01:39:01;97304.44;;;9.51;83.99
42771;BME280;28426;42.872;25.314;2023-05-20T01:41:34;97308.78;;;9.52;84.11
42771;BME280;28426;42.872;25.314;2023-05-20T01:44:06;97297.44;;;9.50;84.02
42771;BME280;28426;42.872;25.314;2023-05-20T01:46:37;97300.13;;;9.50;84.49
42771;BME280;28426;42.872;25.314;2023-05-20T01:49:07;97299.94;;;9.52;84.29
42771;BME280;28426;42.872;25.314;2023-05-20T01:51:38;97294.78;;;9.50;84.22
42771;BME280;28426;42.872;25.314;2023-05-20T01:54:12;97304.44;;;9.51;84.39
42771;BME280;28426;42.872;25.314;2023-05-20T01:56:44;97313.44;;;9.50;84.25
42771;BME280;28426;42.872;25.314;2023-05-20T01:59:18;97304.97;;;9.47;84.27
42771;BME280;28426;42.872;25.314;2023-05-20T02:01:50;97310.13;;;9.48;84.21
42771;BME280;28426;42.872;25.314;2023-05-20T02:04:21;97316.44;;;9.47;84.15
42771;BME280;28426;42.872;25.314;2023-05-20T02:06:52;97310.47;;;9.45;84.36
42771;BME280;28426;42.872;25.314;2023-05-20T02:09:25;97303.47;;;9.44;84.14
42771;BME280;28426;42.872;25.314;2023-05-20T02:11:56;97308.81;;;9.44;84.06
42771;BME280;28426;42.872;25.314;2023-05-20T02:14:27;97299.34;;;9.41;84.15
42771;BME280;28426;42.872;25.314;2023-05-20T02:16:58;97286.81;;;9.42;84.22
42771;BME280;28426;42.872;25.314;2023-05-20T02:19:29;97298.00;;;9.37;84.07
42771;BME280;28426;42.872;25.314;2023-05-20T02:22:00;97299.19;;;9.35;83.84
42771;BME280;28426;42.872;25.314;2023-05-20T02:24:34;97306.69;;;9.31;83.82
42771;BME280;28426;42.872;25.314;2023-05-20T02:27:05;97299.88;;;9.28;84.01
42771;BME280;28426;42.872;25.314;2023-05-20T02:29:36;97310.03;;;9.25;83.89
42771;BME280;28426;42.872;25.314;2023-05-20T02:32:09;97307.88;;;9.20;83.80
42771;BME280;28426;42.872;25.314;2023-05-20T02:34:40;97308.22;;;9.17;83.86
42771;BME280;28426;42.872;25.314;2023-05-20T02:37:11;97312.25;;;9.13;83.88
42771;BME280;28426;42.872;25.314;2023-05-20T02:39:45;97303.56;;;9.11;84.15
42771;BME280;28426;42.872;25.314;2023-05-20T02:42:15;97309.91;;;9.10;84.24
42771;BME280;28426;42.872;25.314;2023-05-20T02:44:46;97305.91;;;9.06;84.62
42771;BME280;28426;42.872;25.314;2023-05-20T02:47:17;97307.94;;;9.03;84.43
42771;BME280;28426;42.872;25.314;2023-05-20T02:49:48;97301.13;;;9.01;84.79
42771;BME280;28426;42.872;25.314;2023-05-20T02:52:20;97308.44;;;8.99;85.17
42771;BME280;28426;42.872;25.314;2023-05-20T02:54:54;97307.09;;;8.95;85.16
42771;BME280;28426;42.872;25.314;2023-05-20T02:57:24;97293.31;;;8.91;84.96
42771;BME280;28426;42.872;25.314;2023-05-20T02:59:56;97297.16;;;8.88;85.26
42771;BME280;28426;42.872;25.314;2023-05-20T03:02:31;97298.31;;;8.86;85.30
42771;BME280;28426;42.872;25.314;2023-05-20T03:05:02;97302.97;;;8.84;85.12
42771;BME280;28426;42.872;25.314;2023-05-20T03:07:34;97309.47;;;8.81;85.45
42771;BME280;28426;42.872;25.314;2023-05-20T03:10:09;97303.50;;;8.79;85.31
42771;BME280;28426;42.872;25.314;2023-05-20T03:12:40;97308.13;;;8.77;85.42
42771;BME280;28426;42.872;25.314;2023-05-20T03:15:11;97302.00;;;8.76;85.24
42771;BME280;28426;42.872;25.314;2023-05-20T03:17:42;97304.16;;;8.73;85.76
42771;BME280;28426;42.872;25.314;2023-05-20T03:20:13;97308.66;;;8.72;85.65
42771;BME280;28426;42.872;25.314;2023-05-20T03:22:44;97303.34;;;8.72;85.55
42771;BME280;28426;42.872;25.314;2023-05-20T03:25:17;97300.69;;;8.72;85.82
42771;BME280;28426;42.872;25.314;2023-05-20T03:27:48;97300.69;;;8.72;85.73
42771;BME280;28426;42.872;25.314;2023-05-20T03:30:20;97297.84;;;8.74;85.86
42771;BME280;28426;42.872;25.314;2023-05-20T03:32:52;97305.66;;;8.75;85.76
42771;BME280;28426;42.872;25.314;2023-05-20T03:35:24;97300.16;;;8.77;85.72
42771;BME280;28426;42.872;25.314;2023-05-20T03:37:55;97300.16;;;8.77;86.17
42771;BME280;28426;42.872;25.314;2023-05-20T03:40:32;97312.28;;;8.80;86.19
42771;BME280;28426;42.872;25.314;2023-05-20T03:43:03;97322.59;;;8.83;86.03
42771;BME280;28426;42.872;25.314;2023-05-20T03:45:34;97325.75;;;8.86;86.27
42771;BME280;28426;42.872;25.314;2023-05-20T03:48:07;97324.41;;;8.90;86.34
42771;BME280;28426;42.872;25.314;2023-05-20T03:50:39;97331.91;;;8.95;86.02
42771;BME280;28426;42.872;25.314;2023-05-20T03:53:10;97332.22;;;9.00;86.07
42771;BME280;28426;42.872;25.314;2023-05-20T03:55:44;97327.38;;;9.04;85.83
42771;BME280;28426;42.872;25.314;2023-05-20T03:58:15;97333.38;;;9.06;85.92
42771;BME280;28426;42.872;25.314;2023-05-20T04:00:47;97335.53;;;9.11;85.86
42771;BME280;28426;42.872;25.314;2023-05-20T04:03:18;97340.50;;;9.14;85.79
42771;BME280;28426;42.872;25.314;2023-05-20T04:05:49;97337.34;;;9.19;85.71
42771;BME280;28426;42.872;25.314;2023-05-20T04:08:21;97336.66;;;9.25;85.63
42771;BME280;28426;42.872;25.314;2023-05-20T04:10:57;97332.81;;;9.36;85.70
42771;BME280;28426;42.872;25.314;2023-05-20T04:13:28;97328.78;;;9.48;85.97
42771;BME280;28426;42.872;25.314;2023-05-20T04:15:59;97330.72;;;9.63;86.37
42771;BME280;28426;42.872;25.314;2023-05-20T04:18:31;97334.97;;;9.80;86.42
42771;BME280;28426;42.872;25.314;2023-05-20T04:21:06;97332.56;;;9.94;85.93
42771;BME280;28426;42.872;25.314;2023-05-20T04:23:38;97334.81;;;10.05;85.59
42771;BME280;28426;42.872;25.314;2023-05-20T04:26:11;97335.59;;;10.14;85.25
42771;BME280;28426;42.872;25.314;2023-05-20T04:28:42;97332.03;;;10.22;84.65
42771;BME280;28426;42.872;25.314;2023-05-20T04:31:15;97331.53;;;10.27;83.90
42771;BME280;28426;42.872;25.314;2023-05-20T04:33:47;97322.16;;;10.31;83.90
42771;BME280;28426;42.872;25.314;2023-05-20T04:36:18;97326.94;;;10.36;83.88
42771;BME280;28426;42.872;25.314;2023-05-20T04:38:49;97318.22;;;10.42;83.88
42771;BME280;28426;42.872;25.314;2023-05-20T04:41:23;97336.41;;;10.46;84.11
42771;BME280;28426;42.872;25.314;2023-05-20T04:43:54;97319.88;;;10.51;84.14
42771;BME280;28426;42.872;25.314;2023-05-20T04:46:26;97335.16;;;10.57;84.25
42771;BME280;28426;42.872;25.314;2023-05-20T04:48:58;97331.75;;;10.64;84.16
42771;BME280;28426;42.872;25.314;2023-05-20T04:51:31;97325.16;;;10.75;84.64
42771;BME280;28426;42.872;25.314;2023-05-20T04:54:02;97322.00;;;10.94;85.45
42771;BME280;28426;42.872;25.314;2023-05-20T04:56:35;97329.56;;;11.21;85.90
42771;BME280;28426;42.872;25.314;2023-05-20T04:59:07;97327.53;;;11.53;86.26
42771;BME280;28426;42.872;25.314;2023-05-20T05:01:39;97330.88;;;11.92;85.74
42771;BME280;28426;42.872;25.314;2023-05-20T05:04:10;97326.81;;;12.33;85.51
42771;BME280;28426;42.872;25.314;2023-05-20T05:06:41;97332.97;;;12.77;84.72
42771;BME280;28426;42.872;25.314;2023-05-20T05:09:12;97329.56;;;13.19;83.18
42771;BME280;28426;42.872;25.314;2023-05-20T05:11:46;97328.16;;;13.58;81.41
42771;BME280;28426;42.872;25.314;2023-05-20T05:14:17;97322.13;;;13.98;81.00
42771;BME280;28426;42.872;25.314;2023-05-20T05:16:49;97335.25;;;14.42;79.67
42771;BME280;28426;42.872;25.314;2023-05-20T05:19:22;97328.91;;;14.84;79.07
42771;BME280;28426;42.872;25.314;2023-05-20T05:21:53;97327.22;;;15.23;75.45
42771;BME280;28426;42.872;25.314;2023-05-20T05:24:24;97340.38;;;15.59;75.19
42771;BME280;28426;42.872;25.314;2023-05-20T05:26:58;97334.03;;;15.92;73.86
42771;BME280;28426;42.872;25.314;2023-05-20T05:29:29;97324.78;;;16.27;72.93
42771;BME280;28426;42.872;25.314;2023-05-20T05:32:00;97324.56;;;16.60;72.55
42771;BME280;28426;42.872;25.314;2023-05-20T05:34:30;97318.66;;;16.96;71.99
42771;BME280;28426;42.872;25.314;2023-05-20T05:37:03;97322.28;;;17.34;70.70
42771;BME280;28426;42.872;25.314;2023-05-20T05:39:34;97325.47;;;17.49;68.61
42771;BME280;28426;42.872;25.314;2023-05-20T05:42:07;97318.34;;;17.55;67.26
42771;BME280;28426;42.872;25.314;2023-05-20T05:44:39;97314.53;;;17.63;66.50
42771;BME280;28426;42.872;25.314;2023-05-20T05:47:10;97314.72;;;17.80;66.25
42771;BME280;28426;42.872;25.314;2023-05-20T05:49:42;97311.09;;;18.05;65.22
42771;BME280;28426;42.872;25.314;2023-05-20T05:52:13;97298.44;;;18.36;64.79
42771;BME280;28426;42.872;25.314;2023-05-20T05:54:44;97298.84;;;18.76;64.47
42771;BME280;28426;42.872;25.314;2023-05-20T05:57:17;97297.63;;;19.14;63.23
42771;BME280;28426;42.872;25.314;2023-05-20T05:59:48;97300.03;;;19.52;62.51
42771;BME280;28426;42.872;25.314;2023-05-20T06:02:21;97298.06;;;19.88;61.72
42771;BME280;28426;42.872;25.314;2023-05-20T06:04:53;97311.00;;;20.27;60.04
42771;BME280;28426;42.872;25.314;2023-05-20T06:07:24;97297.28;;;20.63;59.50
42771;BME280;28426;42.872;25.314;2023-05-20T06:09:56;97292.69;;;20.98;58.98
42771;BME280;28426;42.872;25.314;2023-05-20T06:12:32;97302.19;;;21.35;57.41
42771;BME280;28426;42.872;25.314;2023-05-20T06:15:04;97298.22;;;21.65;56.74
42771;BME280;28426;42.872;25.314;2023-05-20T06:17:35;97302.16;;;21.97;55.45
42771;BME280;28426;42.872;25.314;2023-05-20T06:20:08;97302.50;;;22.28;54.63
42771;BME280;28426;42.872;25.314;2023-05-20T06:22:39;97308.44;;;22.52;52.94
42771;BME280;28426;42.872;25.314;2023-05-20T06:25:11;97311.34;;;22.73;52.78
42771;BME280;28426;42.872;25.314;2023-05-20T06:27:45;97314.00;;;23.01;53.21
42771;BME280;28426;42.872;25.314;2023-05-20T06:30:19;97309.78;;;23.20;50.72
42771;BME280;28426;42.872;25.314;2023-05-20T06:32:50;97314.47;;;23.30;50.20
42771;BME280;28426;42.872;25.314;2023-05-20T06:35:21;97321.97;;;23.50;49.97
42771;BME280;28426;42.872;25.314;2023-05-20T06:37:51;97318.25;;;23.62;48.72
42771;BME280;28426;42.872;25.314;2023-05-20T06:40:22;97309.00;;;23.68;47.89
42771;BME280;28426;42.872;25.314;2023-05-20T06:42:57;97307.59;;;23.60;47.68
42771;BME280;28426;42.872;25.314;2023-05-20T06:46:07;97311.13;;;23.61;48.24
42771;BME280;28426;42.872;25.314;2023-05-20T06:48:44;97317.22;;;23.84;48.17
42771;BME280;28426;42.872;25.314;2023-05-20T06:51:16;97323.03;;;24.03;47.23
42771;BME280;28426;42.872;25.314;2023-05-20T06:53:49;97315.94;;;24.07;47.63
42771;BME280;28426;42.872;25.314;2023-05-20T06:56:20;97327.06;;;23.90;46.25
42771;BME280;28426;42.872;25.314;2023-05-20T06:58:54;97323.13;;;23.65;46.52
42771;BME280;28426;42.872;25.314;2023-05-20T07:01:25;97308.06;;;23.42;46.98
42771;BME280;28426;42.872;25.314;2023-05-20T07:03:57;97302.50;;;23.31;47.28
42771;BME280;28426;42.872;25.314;2023-05-20T07:06:28;97304.47;;;23.36;48.20
42771;BME280;28426;42.872;25.314;2023-05-20T07:09:00;97297.22;;;23.57;48.38
42771;BME280;28426;42.872;25.314;2023-05-20T07:11:32;97305.50;;;23.78;46.78
42771;BME280;28426;42.872;25.314;2023-05-20T07:14:07;97312.38;;;23.96;46.87
42771;BME280;28426;42.872;25.314;2023-05-20T07:16:38;97316.59;;;24.30;47.00
42771;BME280;28426;42.872;25.314;2023-05-20T07:19:09;97310.34;;;24.61;45.71
42771;BME280;28426;42.872;25.314;2023-05-20T07:21:40;97311.22;;;24.87;45.88
42771;BME280;28426;42.872;25.314;2023-05-20T07:24:16;97314.47;;;24.94;45.58
42771;BME280;28426;42.872;25.314;2023-05-20T07:26:47;97313.13;;;24.87;44.48
42771;BME280;28426;42.872;25.314;2023-05-20T07:29:21;97325.91;;;24.71;44.17
42771;BME280;28426;42.872;25.314;2023-05-20T07:31:52;97317.69;;;24.45;44.30
42771;BME280;28426;42.872;25.314;2023-05-20T07:34:23;97324.72;;;24.14;44.81
42771;BME280;28426;42.872;25.314;2023-05-20T07:36:54;97329.78;;;23.85;45.39
42771;BME280;28426;42.872;25.314;2023-05-20T07:39:25;97328.81;;;23.53;45.80
42771;BME280;28426;42.872;25.314;2023-05-20T07:41:56;97338.94;;;23.20;46.13
42771;BME280;28426;42.872;25.314;2023-05-20T07:44:30;97328.31;;;22.85;46.16
42771;BME280;28426;42.872;25.314;2023-05-20T07:47:01;97316.25;;;22.48;47.31
42771;BME280;28426;42.872;25.314;2023-05-20T07:49:33;97323.91;;;22.24;48.01
42771;BME280;28426;42.872;25.314;2023-05-20T07:52:05;97325.78;;;21.96;48.54
42771;BME280;28426;42.872;25.314;2023-05-20T07:54:36;97325.94;;;21.67;48.39
42771;BME280;28426;42.872;25.314;2023-05-20T07:57:07;97319.09;;;21.42;48.86
42771;BME280;28426;42.872;25.314;2023-05-20T07:59:41;97314.13;;;21.16;48.88
42771;BME280;28426;42.872;25.314;2023-05-20T08:02:12;97314.38;;;20.98;49.43
42771;BME280;28426;42.872;25.314;2023-05-20T08:04:44;97313.84;;;20.84;50.04
42771;BME280;28426;42.872;25.314;2023-05-20T08:07:15;97318.25;;;20.85;51.12
42771;BME280;28426;42.872;25.314;2023-05-20T08:09:51;97308.72;;;20.82;50.32
42771;BME280;28426;42.872;25.314;2023-05-20T08:12:22;97311.53;;;20.87;50.39
42771;BME280;28426;42.872;25.314;2023-05-20T08:14:56;97300.66;;;21.04;51.18
42771;BME280;28426;42.872;25.314;2023-05-20T08:17:27;97302.19;;;21.35;51.26
42771;BME280;28426;42.872;25.314;2023-05-20T08:19:58;97305.75;;;21.58;51.13
42771;BME280;28426;42.872;25.314;2023-05-20T08:22:30;97316.00;;;21.73;50.87
42771;BME280;28426;42.872;25.314;2023-05-20T08:25:01;97311.44;;;21.78;50.34
42771;BME280;28426;42.872;25.314;2023-05-20T08:27:32;97304.97;;;21.79;48.94
42771;BME280;28426;42.872;25.314;2023-05-20T08:30:09;97304.97;;;21.79;49.28
42771;BME280;28426;42.872;25.314;2023-05-20T08:32:41;97302.50;;;21.78;49.27
42771;BME280;28426;42.872;25.314;2023-05-20T08:35:12;97305.94;;;21.73;49.08
42771;BME280;28426;42.872;25.314;2023-05-20T08:37:42;97314.50;;;21.65;49.17
42771;BME280;28426;42.872;25.314;2023-05-20T08:40:14;97311.66;;;21.54;49.83
42771;BME280;28426;42.872;25.314;2023-05-20T08:42:47;97310.38;;;21.40;49.20
42771;BME280;28426;42.872;25.314;2023-05-20T08:45:23;97301.69;;;21.21;48.43
42771;BME280;28426;42.872;25.314;2023-05-20T08:48:00;97295.78;;;21.07;49.44
42771;BME280;28426;42.872;25.314;2023-05-20T08:50:32;97302.97;;;20.96;51.17
42771;BME280;28426;42.872;25.314;2023-05-20T08:53:03;97310.22;;;20.90;51.46
42771;BME280;28426;42.872;25.314;2023-05-20T08:55:38;97305.28;;;20.87;51.93
42771;BME280;28426;42.872;25.314;2023-05-20T08:58:12;97306.16;;;20.75;52.07
42771;BME280;28426;42.872;25.314;2023-05-20T09:00:47;97306.06;;;20.70;52.10
42771;BME280;28426;42.872;25.314;2023-05-20T09:03:18;97308.59;;;20.60;52.36
42771;BME280;28426;42.872;25.314;2023-05-20T09:05:52;97304.41;;;20.52;52.49
42771;BME280;28426;42.872;25.314;2023-05-20T09:08:24;97305.63;;;20.44;52.68
42771;BME280;28426;42.872;25.314;2023-05-20T09:10:55;97299.06;;;20.40;53.20
42771;BME280;28426;42.872;25.314;2023-05-20T09:13:26;97294.34;;;20.35;53.64
42771;BME280;28426;42.872;25.314;2023-05-20T09:16:02;97302.72;;;20.34;53.64
42771;BME280;28426;42.872;25.314;2023-05-20T09:18:32;97313.00;;;20.32;53.68
42771;BME280;28426;42.872;25.314;2023-05-20T09:21:04;97311.84;;;20.28;53.21
42771;BME280;28426;42.872;25.314;2023-05-20T09:23:36;97313.38;;;20.23;53.46
42771;BME280;28426;42.872;25.314;2023-05-20T09:26:07;97314.09;;;20.19;52.86
42771;BME280;28426;42.872;25.314;2023-05-20T09:28:38;97306.72;;;20.14;52.38
42771;BME280;28426;42.872;25.314;2023-05-20T09:31:13;97306.38;;;20.10;52.62
42771;BME280;28426;42.872;25.314;2023-05-20T09:33:44;97317.09;;;20.05;52.89
42771;BME280;28426;42.872;25.314;2023-05-20T09:36:15;97311.59;;;20.00;53.02
42771;BME280;28426;42.872;25.314;2023-05-20T09:38:46;97300.88;;;19.93;52.94
42771;BME280;28426;42.872;25.314;2023-05-20T09:41:22;97298.91;;;19.89;52.81
42771;BME280;28426;42.872;25.314;2023-05-20T09:43:54;97290.41;;;19.85;52.88
42771;BME280;28426;42.872;25.314;2023-05-20T09:46:28;97287.38;;;19.81;53.25
42771;BME280;28426;42.872;25.314;2023-05-20T09:49:00;97275.13;;;19.79;53.79
42771;BME280;28426;42.872;25.314;2023-05-20T09:51:34;97275.38;;;19.77;53.66
42771;BME280;28426;42.872;25.314;2023-05-20T09:54:05;97272.09;;;19.75;53.48
42771;BME280;28426;42.872;25.314;2023-05-20T09:56:36;97267.75;;;19.74;53.82
42771;BME280;28426;42.872;25.314;2023-05-20T09:59:10;97273.41;;;19.72;54.43
42771;BME280;28426;42.872;25.314;2023-05-20T10:01:46;97275.03;;;19.73;54.77
42771;BME280;28426;42.872;25.314;2023-05-20T10:04:17;97273.97;;;19.74;54.30
42771;BME280;28426;42.872;25.314;2023-05-20T10:07:08;97265.84;;;19.74;53.83
42771;BME280;28426;42.872;25.314;2023-05-20T10:09:55;97264.22;;;19.73;53.91
42771;BME280;28426;42.872;25.314;2023-05-20T10:12:35;97262.56;;;19.72;54.68
42771;BME280;28426;42.872;25.314;2023-05-20T10:15:15;97264.44;;;19.72;54.95
42771;BME280;28426;42.872;25.314;2023-05-20T10:17:54;97266.81;;;19.68;54.77
42771;BME280;28426;42.872;25.314;2023-05-20T10:20:28;97259.78;;;19.67;55.00
42771;BME280;28426;42.872;25.314;2023-05-20T10:22:59;97253.53;;;19.67;54.57
42771;BME280;28426;42.872;25.314;2023-05-20T10:25:31;97250.81;;;19.67;54.92
42771;BME280;28426;42.872;25.314;2023-05-20T10:28:07;97253.06;;;19.70;54.22
42771;BME280;28426;42.872;25.314;2023-05-20T10:30:48;97247.97;;;19.73;54.36
42771;BME280;28426;42.872;25.314;2023-05-20T10:33:24;97251.25;;;19.76;53.80
42771;BME280;28426;42.872;25.314;2023-05-20T10:35:57;97245.34;;;19.79;52.89
42771;BME280;28426;42.872;25.314;2023-05-20T10:38:29;97243.25;;;19.81;52.54
42771;BME280;28426;42.872;25.314;2023-05-20T10:41:07;97236.75;;;19.82;52.90
42771;BME280;28426;42.872;25.314;2023-05-20T10:43:38;97240.53;;;19.81;52.49
42771;BME280;28426;42.872;25.314;2023-05-20T10:46:16;97241.56;;;19.80;52.14
42771;BME280;28426;42.872;25.314;2023-05-20T10:49:16;97232.88;;;19.78;52.33
42771;BME280;28426;42.872;25.314;2023-05-20T10:51:53;97225.31;;;19.80;52.30
42771;BME280;28426;42.872;25.314;2023-05-20T10:54:24;97221.22;;;19.77;52.37
42771;BME280;28426;42.872;25.314;2023-05-20T10:56:55;97216.97;;;19.81;52.76
42771;BME280;28426;42.872;25.314;2023-05-20T10:59:26;97218.72;;;19.88;52.89
42771;BME280;28426;42.872;25.314;2023-05-20T11:01:58;97215.88;;;19.94;52.64
42771;BME280;28426;42.872;25.314;2023-05-20T11:04:35;97219.25;;;20.02;52.29
42771;BME280;28426;42.872;25.314;2023-05-20T11:07:06;97209.34;;;20.07;52.61
42771;BME280;28426;42.872;25.314;2023-05-20T11:09:37;97220.03;;;20.14;53.02
42771;BME280;28426;42.872;25.314;2023-05-20T11:12:07;97207.63;;;20.18;52.72
42771;BME280;28426;42.872;25.314;2023-05-20T11:14:38;97208.56;;;20.24;53.36
42771;BME280;28426;42.872;25.314;2023-05-20T11:17:09;97201.31;;;20.30;53.08
42771;BME280;28426;42.872;25.314;2023-05-20T11:19:43;97205.75;;;20.36;53.10
42771;BME280;28426;42.872;25.314;2023-05-20T11:22:14;97198.19;;;20.38;52.55
42771;BME280;28426;42.872;25.314;2023-05-20T11:24:45;97199.81;;;20.39;53.13
42771;BME280;28426;42.872;25.314;2023-05-20T11:27:16;97208.47;;;20.36;52.75
42771;BME280;28426;42.872;25.314;2023-05-20T11:29:49;97212.50;;;20.33;53.20
42771;BME280;28426;42.872;25.314;2023-05-20T11:32:20;97204.53;;;20.27;51.95
42771;BME280;28426;42.872;25.314;2023-05-20T11:34:53;97203.13;;;20.24;52.17
42771;BME280;28426;42.872;25.314;2023-05-20T11:37:24;97198.91;;;20.16;50.94
42771;BME280;28426;42.872;25.314;2023-05-20T11:40:05;97205.88;;;20.12;51.07
42771;BME280;28426;42.872;25.314;2023-05-20T11:42:37;97197.19;;;20.10;50.82
42771;BME280;28426;42.872;25.314;2023-05-20T11:45:12;97186.13;;;20.11;50.86
42771;BME280;28426;42.872;25.314;2023-05-20T11:47:43;97184.31;;;20.17;50.78
42771;BME280;28426;42.872;25.314;2023-05-20T11:50:19;97176.84;;;20.24;49.65
42771;BME280;28426;42.872;25.314;2023-05-20T11:52:56;97180.78;;;20.34;49.87
42771;BME280;28426;42.872;25.314;2023-05-20T11:55:27;97176.03;;;20.41;49.46
42771;BME280;28426;42.872;25.314;2023-05-20T11:57:59;97184.81;;;20.48;49.26
42771;BME280;28426;42.872;25.314;2023-05-20T12:00:30;97182.44;;;20.52;49.32
42771;BME280;28426;42.872;25.314;2023-05-20T12:03:17;97178.16;;;20.56;48.94
42771;BME280;28426;42.872;25.314;2023-05-20T12:05:51;97174.94;;;20.59;48.77
42771;BME280;28426;42.872;25.314;2023-05-20T12:08:22;97168.47;;;20.60;48.33
42771;BME280;28426;42.872;25.314;2023-05-20T12:10:53;97162.22;;;20.60;48.20
42771;BME280;28426;42.872;25.314;2023-05-20T12:13:24;97153.25;;;20.59;49.05
42771;BME280;28426;42.872;25.314;2023-05-20T12:15:55;97153.53;;;20.58;49.40
42771;BME280;28426;42.872;25.314;2023-05-20T12:18:26;97143.47;;;20.58;48.95
42771;BME280;28426;42.872;25.314;2023-05-20T12:21:01;97152.94;;;20.56;48.69
42771;BME280;28426;42.872;25.314;2023-05-20T12:23:32;97150.22;;;20.56;47.77
42771;BME280;28426;42.872;25.314;2023-05-20T12:26:03;97141.78;;;20.52;47.90
42771;BME280;28426;42.872;25.314;2023-05-20T12:28:34;97145.81;;;20.49;47.75
42771;BME280;28426;42.872;25.314;2023-05-20T12:31:05;97138.75;;;20.48;47.95
42771;BME280;28426;42.872;25.314;2023-05-20T12:33:36;97144.16;;;20.48;48.56
42771;BME280;28426;42.872;25.314;2023-05-20T12:36:09;97131.41;;;20.49;48.44
42771;BME280;28426;42.872;25.314;2023-05-20T12:38:40;97130.09;;;20.51;47.47
42771;BME280;28426;42.872;25.314;2023-05-20T12:41:11;97132.25;;;20.49;46.84
42771;BME280;28426;42.872;25.314;2023-05-20T12:43:42;97127.06;;;20.48;47.62
42771;BME280;28426;42.872;25.314;2023-05-20T12:46:13;97119.50;;;20.50;48.17
42771;BME280;28426;42.872;25.314;2023-05-20T12:48:44;97115.47;;;20.52;47.96
42771;BME280;28426;42.872;25.314;2023-05-20T12:51:18;97105.47;;;20.53;47.43
42771;BME280;28426;42.872;25.314;2023-05-20T12:53:49;97101.91;;;20.52;47.22
42771;BME280;28426;42.872;25.314;2023-05-20T12:56:20;97090.50;;;20.50;47.17
42771;BME280;28426;42.872;25.314;2023-05-20T12:58:53;97091.59;;;20.49;46.58
42771;BME280;28426;42.872;25.314;2023-05-20T13:01:24;97091.53;;;20.44;47.17
42771;BME280;28426;42.872;25.314;2023-05-20T13:03:56;97083.88;;;20.41;47.42
42771;BME280;28426;42.872;25.314;2023-05-20T13:06:29;97078.94;;;20.38;47.82
42771;BME280;28426;42.872;25.314;2023-05-20T13:09:00;97092.75;;;20.36;48.27
42771;BME280;28426;42.872;25.314;2023-05-20T13:11:31;97091.94;;;20.36;47.67
42771;BME280;28426;42.872;25.314;2023-05-20T13:14:02;97084.06;;;20.34;47.21
42771;BME280;28426;42.872;25.314;2023-05-20T13:16:33;97083.22;;;20.34;47.60
42771;BME280;28426;42.872;25.314;2023-05-20T13:19:04;97076.75;;;20.35;47.94
42771;BME280;28426;42.872;25.314;2023-05-20T13:21:37;97075.16;;;20.39;47.43